createdAt,value
2022-10-12T00:01:35.939Z,9.23
2022-10-12T00:06:37.950Z,8.45
2022-10-12T00:11:41.093Z,8.57
2022-10-12T00:16:42.840Z,7.85
2022-10-12T00:21:44.679Z,7.53
2022-10-12T00:26:46.461Z,8.43
2022-10-12T00:31:48.298Z,8.57
2022-10-12T00:36:50.210Z,7.88
2022-10-12T00:41:51.952Z,8.90
2022-10-12T00:46:56.466Z,7.95
2022-10-12T00:52:02.850Z,8.90
2022-10-12T00:57:06.123Z,7.78
2022-10-12T01:02:08.448Z,8.00
2022-10-12T01:07:10.524Z,8.68
2022-10-12T01:12:12.840Z,7.82
2022-10-12T01:17:27.048Z,8.25
2022-10-12T01:22:37.657Z,7.85
2022-10-12T01:27:47.662Z,8.25
2022-10-12T01:33:16.692Z,8.07
2022-10-12T01:38:33.218Z,9.35
2022-10-12T01:43:41.662Z,7.65
2022-10-12T01:48:46.472Z,8.50
2022-10-12T01:53:52.454Z,8.48
2022-10-12T01:59:22.955Z,7.75
2022-10-12T02:04:28.451Z,7.22
2022-10-12T02:09:34.791Z,7.65
2022-10-12T02:14:42.075Z,8.30
2022-10-12T02:19:50.227Z,7.17
2022-10-12T02:24:56.400Z,8.10
2022-10-12T02:29:58.615Z,7.68
2022-10-12T02:35:13.846Z,7.72
2022-10-12T02:40:36.359Z,7.63
2022-10-12T02:45:42.261Z,7.90
2022-10-12T02:50:44.949Z,6.93
2022-10-12T02:55:49.660Z,7.90
2022-10-12T03:00:51.642Z,7.80
2022-10-12T03:05:53.488Z,7.80
2022-10-12T03:10:55.198Z,7.20
2022-10-12T03:16:09.127Z,7.45
2022-10-12T03:21:10.956Z,7.43
2022-10-12T03:26:12.751Z,8.40
2022-10-12T03:31:14.639Z,7.97
2022-10-12T03:36:16.480Z,8.30
2022-10-12T03:41:18.222Z,7.55
2022-10-12T03:46:19.992Z,7.18
2022-10-12T03:51:21.787Z,7.03
2022-10-12T03:56:23.571Z,7.35
2022-10-12T04:01:25.853Z,7.47
2022-10-12T04:06:27.751Z,7.18
2022-10-12T04:11:29.543Z,6.63
2022-10-12T04:16:31.400Z,6.75
2022-10-12T04:21:33.207Z,7.43
2022-10-12T04:26:35.032Z,6.60
2022-10-12T04:31:36.798Z,7.03
2022-10-12T04:36:39.443Z,7.43
2022-10-12T04:41:41.180Z,7.43
2022-10-12T04:46:42.919Z,6.38
2022-10-12T04:51:47.497Z,6.72
2022-10-12T04:56:49.330Z,6.65
2022-10-12T05:01:51.403Z,6.05
2022-10-12T05:06:53.324Z,6.40
2022-10-12T05:11:55.165Z,7.07
2022-10-12T05:16:56.919Z,6.75
2022-10-12T05:21:58.653Z,6.75
2022-10-12T05:27:00.502Z,6.45
2022-10-12T05:32:02.231Z,6.82
2022-10-12T05:37:04.001Z,6.75
2022-10-12T05:42:06.287Z,7.43
2022-10-12T05:47:08.019Z,7.25
2022-10-12T05:52:09.799Z,7.45
2022-10-12T05:57:13.012Z,7.65
2022-10-12T06:02:16.884Z,6.82
2022-10-12T06:07:18.765Z,7.03
2022-10-12T06:12:20.604Z,8.05
2022-10-12T06:17:22.444Z,7.45
2022-10-12T06:22:24.269Z,7.60
2022-10-12T06:27:26.009Z,7.65
2022-10-12T06:32:27.796Z,7.13
2022-10-12T06:37:49.117Z,7.18
2022-10-12T06:42:56.173Z,6.97
2022-10-12T06:48:00.584Z,6.43
2022-10-12T06:53:02.404Z,7.45
2022-10-12T06:58:04.130Z,6.65
2022-10-12T07:03:05.986Z,16.45
2022-10-12T07:08:07.753Z,13.65
2022-10-12T07:13:09.512Z,9.88
2022-10-12T07:18:11.254Z,7.10
2022-10-12T07:23:13.062Z,7.28
2022-10-12T07:28:14.938Z,9.13
2022-10-12T07:33:16.713Z,17.75
2022-10-12T07:38:18.471Z,11.82
2022-10-12T07:43:20.346Z,9.95
2022-10-12T07:48:22.991Z,8.68
2022-10-12T07:53:24.811Z,7.32
2022-10-12T07:58:26.626Z,7.50
2022-10-12T08:03:28.475Z,7.18
2022-10-12T08:08:30.237Z,7.53
2022-10-12T08:13:33.722Z,7.53
2022-10-12T08:18:35.531Z,7.40
2022-10-12T08:23:38.258Z,8.95
2022-10-12T08:28:40.227Z,7.18
2022-10-12T08:33:42.255Z,7.13
2022-10-12T08:38:45.460Z,7.43
2022-10-12T08:43:59.876Z,7.95
2022-10-12T08:49:06.039Z,8.73
2022-10-12T08:54:12.351Z,8.27
2022-10-12T08:59:18.713Z,8.25
2022-10-12T09:04:46.989Z,8.60
2022-10-12T09:10:26.714Z,9.68
2022-10-12T09:15:35.129Z,8.75
2022-10-12T09:20:46.353Z,9.77
2022-10-12T09:25:48.196Z,9.30
2022-10-12T09:31:10.383Z,9.52
2022-10-12T09:36:18.030Z,10.13
2022-10-12T09:41:25.618Z,11.05
2022-10-12T09:46:55.930Z,9.40
2022-10-12T09:52:01.104Z,11.45
2022-10-12T09:57:03.392Z,11.63
2022-10-12T10:02:11.249Z,11.77
2022-10-12T10:07:29.744Z,10.52
2022-10-12T10:12:31.962Z,10.27
2022-10-12T10:17:34.015Z,13.18
2022-10-12T10:22:36.021Z,10.82
2022-10-12T10:27:39.995Z,13.63
2022-10-12T10:32:46.131Z,9.50
2022-10-12T10:37:55.646Z,12.48
2022-10-12T10:43:20.244Z,10.95
2022-10-12T10:48:27.182Z,12.10
2022-10-12T10:53:33.811Z,11.45
2022-10-12T10:58:37.906Z,10.82
2022-10-12T11:03:54.815Z,13.85
2022-10-12T11:09:03.785Z,12.98
2022-10-12T11:14:19.207Z,11.63
2022-10-12T11:19:42.257Z,10.55
2022-10-12T11:24:52.738Z,11.13
2022-10-12T11:30:08.753Z,8.30
2022-10-12T11:35:26.836Z,10.20
2022-10-12T11:41:05.521Z,9.55
2022-10-12T11:46:11.591Z,10.43
2022-10-12T11:51:13.491Z,11.68
2022-10-12T11:56:21.050Z,10.68
2022-10-12T12:01:53.083Z,10.20
2022-10-12T12:07:03.346Z,9.07
2022-10-12T12:12:18.947Z,9.20
2022-10-12T12:17:20.735Z,9.55
2022-10-12T12:22:32.471Z,8.65
2022-10-12T12:27:47.172Z,10.95
2022-10-12T12:32:57.804Z,10.57
2022-10-12T12:38:30.471Z,8.52
2022-10-12T12:43:32.151Z,9.00
2022-10-12T12:48:42.851Z,7.30
2022-10-12T12:53:56.444Z,8.05
2022-10-12T12:59:49.651Z,9.93
2022-10-12T13:05:21.978Z,10.68
2022-10-12T13:10:42.608Z,8.23
2022-10-12T13:16:05.584Z,8.30
2022-10-12T13:21:12.499Z,9.25
2022-10-12T13:26:20.130Z,7.93
2022-10-12T13:31:31.378Z,8.73
2022-10-12T13:36:36.776Z,9.77
2022-10-12T13:41:39.746Z,8.77
2022-10-12T13:46:44.610Z,10.32
2022-10-12T13:51:51.512Z,9.50
2022-10-12T13:57:34.020Z,10.20
2022-10-12T14:02:36.227Z,12.27
2022-10-12T14:07:39.569Z,11.07
2022-10-12T14:12:42.944Z,13.13
2022-10-12T14:17:48.096Z,11.10
2022-10-12T14:22:50.076Z,9.77
2022-10-12T14:28:03.797Z,12.02
2022-10-12T14:33:15.902Z,10.55
2022-10-12T14:38:41.055Z,9.90
2022-10-12T14:43:42.777Z,11.43
2022-10-12T14:48:44.538Z,12.95
2022-10-12T14:53:46.267Z,13.50
2022-10-12T14:58:47.995Z,10.60
2022-10-12T15:03:49.739Z,9.85
2022-10-12T15:08:52.595Z,9.07
2022-10-12T15:13:54.346Z,8.70
2022-10-12T15:18:56.148Z,7.75
2022-10-12T15:23:57.868Z,9.98
2022-10-12T15:29:06.187Z,10.73
2022-10-12T15:34:15.531Z,10.23
2022-10-12T15:39:17.290Z,12.23
2022-10-12T15:44:19.053Z,9.23
2022-10-12T15:49:24.211Z,9.55
2022-10-12T15:54:25.967Z,9.40
2022-10-12T15:59:27.838Z,9.80
2022-10-12T16:04:29.579Z,9.32
2022-10-12T16:09:31.307Z,7.75
2022-10-12T16:14:33.364Z,7.65
2022-10-12T16:19:35.090Z,8.82
2022-10-12T16:24:36.818Z,9.15
2022-10-12T16:29:38.856Z,8.73
2022-10-12T16:34:40.639Z,9.40
2022-10-12T16:39:42.427Z,8.75
2022-10-12T16:44:44.215Z,8.90
2022-10-12T16:49:46.584Z,8.25
2022-10-12T16:54:48.360Z,8.27
2022-10-12T16:59:50.855Z,7.55
2022-10-12T17:04:52.620Z,12.07
2022-10-12T17:09:55.819Z,13.85
2022-10-12T17:14:58.047Z,14.25
2022-10-12T17:19:59.786Z,12.15
2022-10-12T17:25:04.165Z,9.70
2022-10-12T17:30:06.534Z,9.48
2022-10-12T17:35:08.632Z,11.50
2022-10-12T17:40:11.388Z,10.98
2022-10-12T17:45:13.137Z,9.27
2022-10-12T17:50:15.041Z,9.70
2022-10-12T17:55:36.105Z,9.02
2022-10-12T18:00:38.614Z,7.72
2022-10-12T18:05:40.347Z,8.93
2022-10-12T18:10:42.687Z,9.65
2022-10-12T18:15:44.478Z,9.13
2022-10-12T18:20:46.310Z,9.90
2022-10-12T18:25:48.302Z,9.25
2022-10-12T18:30:50.842Z,10.40
2022-10-12T18:35:52.732Z,11.27
2022-10-12T18:40:54.457Z,10.80
2022-10-12T18:45:56.240Z,10.98
2022-10-12T18:51:07.043Z,10.50
2022-10-12T18:56:09.897Z,14.20
2022-10-12T19:01:14.977Z,11.10
2022-10-12T19:06:20.205Z,12.30
2022-10-12T19:11:23.126Z,11.02
2022-10-12T19:16:25.994Z,9.75
2022-10-12T19:21:28.337Z,10.57
2022-10-12T19:26:30.687Z,8.95
2022-10-12T19:31:35.115Z,11.07
2022-10-12T19:36:37.479Z,11.25
2022-10-12T19:41:39.347Z,10.25
2022-10-12T19:46:42.698Z,13.98
2022-10-12T19:51:44.649Z,12.13
2022-10-12T19:56:46.427Z,12.52
2022-10-12T20:01:48.409Z,12.40
2022-10-12T20:06:50.134Z,11.63
2022-10-12T20:11:52.256Z,10.52
2022-10-12T20:16:54.601Z,19.90
2022-10-12T20:21:56.335Z,12.75
2022-10-12T20:26:58.069Z,11.38
2022-10-12T20:31:59.846Z,10.43
2022-10-12T20:37:01.589Z,12.57
2022-10-12T20:42:03.419Z,9.57
2022-10-12T20:47:05.215Z,9.75
2022-10-12T20:52:07.360Z,10.30
2022-10-12T20:57:09.260Z,11.23
2022-10-12T21:02:11.462Z,10.52
2022-10-12T21:07:14.478Z,10.23
2022-10-12T21:12:16.610Z,10.90
2022-10-12T21:17:18.848Z,10.60
2022-10-12T21:22:20.929Z,10.77
2022-10-12T21:27:23.063Z,14.77
2022-10-12T21:32:25.021Z,10.52
2022-10-12T21:37:29.277Z,11.38
2022-10-12T21:42:31.019Z,10.45
2022-10-12T21:47:32.749Z,9.73
2022-10-12T21:52:35.000Z,10.48
2022-10-12T21:57:37.284Z,9.35
2022-10-12T22:02:39.187Z,10.40
2022-10-12T22:07:42.546Z,9.45
2022-10-12T22:12:44.299Z,10.27
2022-10-12T22:17:46.058Z,10.43
2022-10-12T22:22:47.782Z,12.90
2022-10-12T22:27:49.571Z,11.93
2022-10-12T22:32:51.309Z,11.95
2022-10-12T22:37:53.067Z,11.85
2022-10-12T22:42:54.802Z,12.50
2022-10-12T22:47:56.535Z,11.77
2022-10-12T22:52:58.251Z,12.88
2022-10-12T22:58:04.440Z,12.98
2022-10-12T23:03:06.800Z,13.90
2022-10-12T23:08:09.336Z,14.35
2022-10-12T23:13:11.076Z,13.50
2022-10-12T23:18:12.792Z,14.60
2022-10-12T23:23:14.518Z,16.90
2022-10-12T23:28:16.313Z,16.02
2022-10-12T23:33:18.123Z,16.30
2022-10-12T23:38:19.851Z,18.95
2022-10-12T23:43:22.740Z,16.67
2022-10-12T23:48:25.247Z,14.43
2022-10-12T23:53:27.696Z,13.50
2022-10-12T23:58:29.511Z,14.15
